sensor_id;sensor_type;location;lat;lon;timestamp;temperature;humidity
3628;DHT22;1830;49.000;12.074;2023-03-01T00:00:08;0.60;99.90
3628;DHT22;1830;49.000;12.074;2023-03-01T00:02:35;0.60;99.90
3628;DHT22;1830;49.000;12.074;2023-03-01T00:05:03;0.60;99.90
3628;DHT22;1830;49.000;12.074;2023-03-01T00:07:31;0.60;99.90
3628;DHT22;1830;49.000;12.074;2023-03-01T00:09:58;0.60;99.90
3628;DHT22;1830;49.000;12.074;2023-03-01T00:12:24;0.60;99.90
3628;DHT22;1830;49.000;12.074;2023-03-01T00:14:51;0.60;99.90
3628;DHT22;1830;49.000;12.074;2023-03-01T00:17:18;0.60;99.90
3628;DHT22;1830;49.000;12.074;2023-03-01T00:19:45;0.60;99.90
3628;DHT22;1830;49.000;12.074;2023-03-01T00:22:11;0.60;99.90
3628;DHT22;1830;49.000;12.074;2023-03-01T00:24:39;0.50;99.90
3628;DHT22;1830;49.000;12.074;2023-03-01T00:27:06;0.60;99.90
3628;DHT22;1830;49.000;12.074;2023-03-01T00:29:33;0.50;99.90
3628;DHT22;1830;49.000;12.074;2023-03-01T00:32:00;0.60;99.90
3628;DHT22;1830;49.000;12.074;2023-03-01T00:34:26;0.60;99.90
3628;DHT22;1830;49.000;12.074;2023-03-01T00:36:53;0.60;99.90
3628;DHT22;1830;49.000;12.074;2023-03-01T00:39:20;0.60;99.90
3628;DHT22;1830;49.000;12.074;2023-03-01T00:41:48;0.60;99.90
3628;DHT22;1830;49.000;12.074;2023-03-01T00:44:15;0.60;99.90
3628;DHT22;1830;49.000;12.074;2023-03-01T00:46:42;0.60;99.90
3628;DHT22;1830;49.000;12.074;2023-03-01T00:49:09;0.50;99.90
3628;DHT22;1830;49.000;12.074;2023-03-01T00:51:36;0.50;99.90
3628;DHT22;1830;49.000;12.074;2023-03-01T00:54:04;0.50;99.90
3628;DHT22;1830;49.000;12.074;2023-03-01T00:56:31;0.50;99.90
3628;DHT22;1830;49.000;12.074;2023-03-01T00:59:00;0.40;99.90
3628;DHT22;1830;49.000;12.074;2023-03-01T01:01:29;0.40;99.90
3628;DHT22;1830;49.000;12.074;2023-03-01T01:03:59;0.40;99.90
3628;DHT22;1830;49.000;12.074;2023-03-01T01:06:27;0.50;99.90
3628;DHT22;1830;49.000;12.074;2023-03-01T01:08:54;0.50;99.90
3628;DHT22;1830;49.000;12.074;2023-03-01T01:11:22;0.40;99.90
3628;DHT22;1830;49.000;12.074;2023-03-01T01:13:49;0.40;99.90
3628;DHT22;1830;49.000;12.074;2023-03-01T01:16:18;0.40;99.90
3628;DHT22;1830;49.000;12.074;2023-03-01T01:18:46;0.40;99.90
3628;DHT22;1830;49.000;12.074;2023-03-01T01:21:14;0.40;99.90
3628;DHT22;1830;49.000;12.074;2023-03-01T01:23:42;0.50;99.90
3628;DHT22;1830;49.000;12.074;2023-03-01T01:26:11;0.50;99.90
3628;DHT22;1830;49.000;12.074;2023-03-01T01:28:38;0.50;99.90
3628;DHT22;1830;49.000;12.074;2023-03-01T01:31:06;0.40;99.90
3628;DHT22;1830;49.000;12.074;2023-03-01T01:33:35;0.40;99.90
3628;DHT22;1830;49.000;12.074;2023-03-01T01:36:03;0.40;99.90
3628;DHT22;1830;49.000;12.074;2023-03-01T01:38:30;0.30;99.90
3628;DHT22;1830;49.000;12.074;2023-03-01T01:40:57;0.30;99.90
3628;DHT22;1830;49.000;12.074;2023-03-01T01:43:28;0.30;99.90
3628;DHT22;1830;49.000;12.074;2023-03-01T01:46:04;0.30;99.90
3628;DHT22;1830;49.000;12.074;2023-03-01T01:48:38;0.30;99.90
3628;DHT22;1830;49.000;12.074;2023-03-01T01:51:09;0.20;99.90
3628;DHT22;1830;49.000;12.074;2023-03-01T01:53:37;0.20;99.90
3628;DHT22;1830;49.000;12.074;2023-03-01T01:56:06;0.30;99.90
3628;DHT22;1830;49.000;12.074;2023-03-01T01:58:34;0.20;99.90
3628;DHT22;1830;49.000;12.074;2023-03-01T02:01:03;0.20;99.90
3628;DHT22;1830;49.000;12.074;2023-03-01T02:03:31;0.20;99.90
3628;DHT22;1830;49.000;12.074;2023-03-01T02:06:07;0.20;99.90
3628;DHT22;1830;49.000;12.074;2023-03-01T02:08:40;0.20;99.90
3628;DHT22;1830;49.000;12.074;2023-03-01T02:11:09;0.10;99.90
3628;DHT22;1830;49.000;12.074;2023-03-01T02:13:37;0.10;99.90
3628;DHT22;1830;49.000;12.074;2023-03-01T02:16:05;0.10;99.90
3628;DHT22;1830;49.000;12.074;2023-03-01T02:18:32;0.10;99.90
3628;DHT22;1830;49.000;12.074;2023-03-01T02:21:11;0.10;99.90
3628;DHT22;1830;49.000;12.074;2023-03-01T02:23:42;0.10;99.90
3628;DHT22;1830;49.000;12.074;2023-03-01T02:26:14;0.10;99.90
3628;DHT22;1830;49.000;12.074;2023-03-01T02:28:45;0.00;99.90
3628;DHT22;1830;49.000;12.074;2023-03-01T02:31:16;-0.10;99.90
3628;DHT22;1830;49.000;12.074;2023-03-01T02:34:02;-0.10;99.90
3628;DHT22;1830;49.000;12.074;2023-03-01T02:36:34;0.00;99.90
3628;DHT22;1830;49.000;12.074;2023-03-01T02:39:03;-0.10;99.90
3628;DHT22;1830;49.000;12.074;2023-03-01T02:41:36;-0.10;99.90
3628;DHT22;1830;49.000;12.074;2023-03-01T02:44:05;-0.10;99.90
3628;DHT22;1830;49.000;12.074;2023-03-01T02:46:33;-0.10;99.90
3628;DHT22;1830;49.000;12.074;2023-03-01T02:49:00;-0.10;99.90
3628;DHT22;1830;49.000;12.074;2023-03-01T02:51:47;-0.10;99.90
3628;DHT22;1830;49.000;12.074;2023-03-01T02:54:20;-0.20;99.90
3628;DHT22;1830;49.000;12.074;2023-03-01T02:56:49;-0.20;99.90
3628;DHT22;1830;49.000;12.074;2023-03-01T02:59:19;-0.20;99.90
3628;DHT22;1830;49.000;12.074;2023-03-01T03:01:46;-0.20;99.90
3628;DHT22;1830;49.000;12.074;2023-03-01T03:04:16;-0.10;99.90
3628;DHT22;1830;49.000;12.074;2023-03-01T03:06:43;-0.10;99.90
3628;DHT22;1830;49.000;12.074;2023-03-01T03:09:10;-0.20;99.90
3628;DHT22;1830;49.000;12.074;2023-03-01T03:11:37;-0.20;99.90
3628;DHT22;1830;49.000;12.074;2023-03-01T03:14:04;-0.20;99.90
3628;DHT22;1830;49.000;12.074;2023-03-01T03:16:40;-0.20;99.90
3628;DHT22;1830;49.000;12.074;2023-03-01T03:19:06;-0.20;99.90
3628;DHT22;1830;49.000;12.074;2023-03-01T03:21:33;-0.30;99.90
3628;DHT22;1830;49.000;12.074;2023-03-01T03:24:00;-0.30;99.90
3628;DHT22;1830;49.000;12.074;2023-03-01T03:26:27;-0.30;99.90
3628;DHT22;1830;49.000;12.074;2023-03-01T03:28:54;-0.30;99.90
3628;DHT22;1830;49.000;12.074;2023-03-01T03:31:22;-0.20;99.90
3628;DHT22;1830;49.000;12.074;2023-03-01T03:33:50;-0.30;99.90
3628;DHT22;1830;49.000;12.074;2023-03-01T03:36:18;-0.30;99.90
3628;DHT22;1830;49.000;12.074;2023-03-01T03:38:46;-0.30;99.90
3628;DHT22;1830;49.000;12.074;2023-03-01T03:41:14;-0.20;99.90
3628;DHT22;1830;49.000;12.074;2023-03-01T03:43:41;-0.30;99.90
3628;DHT22;1830;49.000;12.074;2023-03-01T03:46:09;-0.30;99.90
3628;DHT22;1830;49.000;12.074;2023-03-01T03:48:38;-0.40;99.90
3628;DHT22;1830;49.000;12.074;2023-03-01T03:51:09;-0.40;99.90
3628;DHT22;1830;49.000;12.074;2023-03-01T03:53:36;-0.40;99.90
3628;DHT22;1830;49.000;12.074;2023-03-01T03:56:04;-0.40;99.90
3628;DHT22;1830;49.000;12.074;2023-03-01T03:58:31;-0.40;99.90
3628;DHT22;1830;49.000;12.074;2023-03-01T04:00:58;-0.40;99.90
3628;DHT22;1830;49.000;12.074;2023-03-01T04:03:27;-0.40;99.90
3628;DHT22;1830;49.000;12.074;2023-03-01T04:05:56;-0.50;99.90
3628;DHT22;1830;49.000;12.074;2023-03-01T04:08:25;-0.50;99.90
3628;DHT22;1830;49.000;12.074;2023-03-01T04:10:58;-0.60;99.90
3628;DHT22;1830;49.000;12.074;2023-03-01T04:13:25;-0.60;99.90
3628;DHT22;1830;49.000;12.074;2023-03-01T04:15:53;-0.60;99.90
3628;DHT22;1830;49.000;12.074;2023-03-01T04:18:21;-0.60;99.90
3628;DHT22;1830;49.000;12.074;2023-03-01T04:20:48;-0.60;99.90
3628;DHT22;1830;49.000;12.074;2023-03-01T04:23:20;-0.60;99.90
3628;DHT22;1830;49.000;12.074;2023-03-01T04:25:50;-0.70;99.90
3628;DHT22;1830;49.000;12.074;2023-03-01T04:28:21;-0.60;99.90
3628;DHT22;1830;49.000;12.074;2023-03-01T04:30:49;-0.60;99.90
3628;DHT22;1830;49.000;12.074;2023-03-01T04:33:17;-0.70;99.90
3628;DHT22;1830;49.000;12.074;2023-03-01T04:35:44;-0.70;99.90
3628;DHT22;1830;49.000;12.074;2023-03-01T04:38:11;-0.70;99.90
3628;DHT22;1830;49.000;12.074;2023-03-01T04:40:38;-0.70;99.90
3628;DHT22;1830;49.000;12.074;2023-03-01T04:43:10;-0.70;99.90
3628;DHT22;1830;49.000;12.074;2023-03-01T04:45:37;-0.60;99.90
3628;DHT22;1830;49.000;12.074;2023-03-01T04:48:04;-0.70;99.90
3628;DHT22;1830;49.000;12.074;2023-03-01T04:50:31;-0.60;99.90
3628;DHT22;1830;49.000;12.074;2023-03-01T04:52:58;-0.80;99.90
3628;DHT22;1830;49.000;12.074;2023-03-01T04:55:25;-0.70;99.90
3628;DHT22;1830;49.000;12.074;2023-03-01T04:57:52;-0.70;99.90
3628;DHT22;1830;49.000;12.074;2023-03-01T05:00:21;-0.70;99.90
3628;DHT22;1830;49.000;12.074;2023-03-01T05:02:50;-0.80;99.90
3628;DHT22;1830;49.000;12.074;2023-03-01T05:05:20;-0.80;99.90
3628;DHT22;1830;49.000;12.074;2023-03-01T05:07:47;-0.80;99.90
3628;DHT22;1830;49.000;12.074;2023-03-01T05:10:14;-0.80;99.90
3628;DHT22;1830;49.000;12.074;2023-03-01T05:12:41;-0.70;99.90
3628;DHT22;1830;49.000;12.074;2023-03-01T05:15:08;-0.70;99.90
3628;DHT22;1830;49.000;12.074;2023-03-01T05:17:37;-0.70;99.90
3628;DHT22;1830;49.000;12.074;2023-03-01T05:20:04;-0.80;99.90
3628;DHT22;1830;49.000;12.074;2023-03-01T05:22:34;-0.70;99.90
3628;DHT22;1830;49.000;12.074;2023-03-01T05:25:00;-0.70;99.90
3628;DHT22;1830;49.000;12.074;2023-03-01T05:27:27;-0.80;99.90
3628;DHT22;1830;49.000;12.074;2023-03-01T05:29:55;-0.90;99.90
3628;DHT22;1830;49.000;12.074;2023-03-01T05:32:22;-0.90;99.90
3628;DHT22;1830;49.000;12.074;2023-03-01T05:34:50;-0.90;99.90
3628;DHT22;1830;49.000;12.074;2023-03-01T05:37:18;-0.90;99.90
3628;DHT22;1830;49.000;12.074;2023-03-01T05:39:45;-0.90;99.90
3628;DHT22;1830;49.000;12.074;2023-03-01T05:42:11;-0.80;99.90
3628;DHT22;1830;49.000;12.074;2023-03-01T05:44:38;-0.80;99.90
3628;DHT22;1830;49.000;12.074;2023-03-01T05:47:06;-0.80;99.90
3628;DHT22;1830;49.000;12.074;2023-03-01T05:49:32;-0.80;99.90
3628;DHT22;1830;49.000;12.074;2023-03-01T05:52:01;-0.80;99.90
3628;DHT22;1830;49.000;12.074;2023-03-01T05:54:28;-0.80;99.90
3628;DHT22;1830;49.000;12.074;2023-03-01T05:56:55;0.00;99.90
3628;DHT22;1830;49.000;12.074;2023-03-01T05:59:22;-0.30;99.90
3628;DHT22;1830;49.000;12.074;2023-03-01T06:01:48;-0.50;99.90
3628;DHT22;1830;49.000;12.074;2023-03-01T06:04:15;-0.60;99.90
3628;DHT22;1830;49.000;12.074;2023-03-01T06:06:42;-0.60;99.90
3628;DHT22;1830;49.000;12.074;2023-03-01T06:09:10;-0.60;99.90
3628;DHT22;1830;49.000;12.074;2023-03-01T06:11:37;-0.70;99.90
3628;DHT22;1830;49.000;12.074;2023-03-01T06:14:05;-0.70;99.90
3628;DHT22;1830;49.000;12.074;2023-03-01T06:16:33;-0.70;99.90
3628;DHT22;1830;49.000;12.074;2023-03-01T06:19:00;-0.80;99.90
3628;DHT22;1830;49.000;12.074;2023-03-01T06:21:26;-0.90;99.90
3628;DHT22;1830;49.000;12.074;2023-03-01T06:23:53;-0.90;99.90
3628;DHT22;1830;49.000;12.074;2023-03-01T06:26:21;-0.90;99.90
3628;DHT22;1830;49.000;12.074;2023-03-01T06:28:48;-0.90;99.90
3628;DHT22;1830;49.000;12.074;2023-03-01T06:31:16;-0.90;99.90
3628;DHT22;1830;49.000;12.074;2023-03-01T06:33:43;-0.90;99.90
3628;DHT22;1830;49.000;12.074;2023-03-01T06:36:10;-0.90;99.90
3628;DHT22;1830;49.000;12.074;2023-03-01T06:38:37;-0.90;99.90
3628;DHT22;1830;49.000;12.074;2023-03-01T06:41:06;-0.90;99.90
3628;DHT22;1830;49.000;12.074;2023-03-01T06:43:34;-0.80;99.90
3628;DHT22;1830;49.000;12.074;2023-03-01T06:46:04;-0.90;99.90
3628;DHT22;1830;49.000;12.074;2023-03-01T06:48:32;-0.80;99.90
3628;DHT22;1830;49.000;12.074;2023-03-01T06:50:59;-0.90;99.90
3628;DHT22;1830;49.000;12.074;2023-03-01T06:53:26;-0.90;99.90
3628;DHT22;1830;49.000;12.074;2023-03-01T06:55:54;-0.90;99.90
3628;DHT22;1830;49.000;12.074;2023-03-01T06:58:21;-0.80;99.90
3628;DHT22;1830;49.000;12.074;2023-03-01T07:00:49;-0.90;99.90
3628;DHT22;1830;49.000;12.074;2023-03-01T07:03:16;-0.90;99.90
3628;DHT22;1830;49.000;12.074;2023-03-01T07:05:43;-0.80;99.90
3628;DHT22;1830;49.000;12.074;2023-03-01T07:08:10;-0.80;99.90
3628;DHT22;1830;49.000;12.074;2023-03-01T07:10:37;-0.80;99.90
3628;DHT22;1830;49.000;12.074;2023-03-01T07:13:04;-0.90;99.90
3628;DHT22;1830;49.000;12.074;2023-03-01T07:15:32;-0.80;99.90
3628;DHT22;1830;49.000;12.074;2023-03-01T07:18:01;-0.90;99.90
3628;DHT22;1830;49.000;12.074;2023-03-01T07:20:27;-0.80;99.90
3628;DHT22;1830;49.000;12.074;2023-03-01T07:22:55;-0.70;99.90
3628;DHT22;1830;49.000;12.074;2023-03-01T07:25:23;-0.70;99.90
3628;DHT22;1830;49.000;12.074;2023-03-01T07:27:50;-0.70;99.90
3628;DHT22;1830;49.000;12.074;2023-03-01T07:30:20;-0.70;99.90
3628;DHT22;1830;49.000;12.074;2023-03-01T07:32:48;-0.60;99.90
3628;DHT22;1830;49.000;12.074;2023-03-01T07:35:16;-0.50;99.90
3628;DHT22;1830;49.000;12.074;2023-03-01T07:37:43;-0.50;99.90
3628;DHT22;1830;49.000;12.074;2023-03-01T07:40:11;-0.50;99.90
3628;DHT22;1830;49.000;12.074;2023-03-01T07:42:38;-0.40;99.90
3628;DHT22;1830;49.000;12.074;2023-03-01T07:45:06;-0.40;99.90
3628;DHT22;1830;49.000;12.074;2023-03-01T07:47:33;-0.50;99.90
3628;DHT22;1830;49.000;12.074;2023-03-01T07:50:00;-0.40;99.90
3628;DHT22;1830;49.000;12.074;2023-03-01T07:52:30;-0.40;99.90
3628;DHT22;1830;49.000;12.074;2023-03-01T07:54:57;-0.40;99.90
3628;DHT22;1830;49.000;12.074;2023-03-01T07:57:24;-0.40;99.90
3628;DHT22;1830;49.000;12.074;2023-03-01T07:59:50;-0.30;99.90
3628;DHT22;1830;49.000;12.074;2023-03-01T08:02:17;-0.30;99.90
3628;DHT22;1830;49.000;12.074;2023-03-01T08:04:44;-0.20;99.90
3628;DHT22;1830;49.000;12.074;2023-03-01T08:07:11;-0.10;99.90
3628;DHT22;1830;49.000;12.074;2023-03-01T08:09:39;-0.10;99.90
3628;DHT22;1830;49.000;12.074;2023-03-01T08:12:06;-0.10;99.90
3628;DHT22;1830;49.000;12.074;2023-03-01T08:14:33;-0.10;99.90
3628;DHT22;1830;49.000;12.074;2023-03-01T08:17:00;0.00;99.90
3628;DHT22;1830;49.000;12.074;2023-03-01T08:19:28;0.10;99.90
3628;DHT22;1830;49.000;12.074;2023-03-01T08:21:55;0.30;99.90
3628;DHT22;1830;49.000;12.074;2023-03-01T08:24:24;0.30;99.90
3628;DHT22;1830;49.000;12.074;2023-03-01T08:26:52;0.40;99.90
3628;DHT22;1830;49.000;12.074;2023-03-01T08:29:19;0.30;99.90
3628;DHT22;1830;49.000;12.074;2023-03-01T08:31:47;0.50;99.90
3628;DHT22;1830;49.000;12.074;2023-03-01T08:34:16;0.50;99.90
3628;DHT22;1830;49.000;12.074;2023-03-01T08:36:44;0.50;99.90
3628;DHT22;1830;49.000;12.074;2023-03-01T08:39:13;0.50;99.90
3628;DHT22;1830;49.000;12.074;2023-03-01T08:41:40;0.60;99.90
3628;DHT22;1830;49.000;12.074;2023-03-01T08:44:10;0.60;99.90
3628;DHT22;1830;49.000;12.074;2023-03-01T08:46:40;0.70;99.90
3628;DHT22;1830;49.000;12.074;2023-03-01T08:49:08;0.80;99.90
3628;DHT22;1830;49.000;12.074;2023-03-01T08:51:35;0.90;99.90
3628;DHT22;1830;49.000;12.074;2023-03-01T08:54:03;0.90;99.90
3628;DHT22;1830;49.000;12.074;2023-03-01T08:56:30;0.90;99.90
3628;DHT22;1830;49.000;12.074;2023-03-01T08:58:57;1.00;99.90
3628;DHT22;1830;49.000;12.074;2023-03-01T09:01:25;1.00;99.90
3628;DHT22;1830;49.000;12.074;2023-03-01T09:03:52;1.00;99.90
3628;DHT22;1830;49.000;12.074;2023-03-01T09:06:19;1.00;99.90
3628;DHT22;1830;49.000;12.074;2023-03-01T09:08:48;1.10;99.90
3628;DHT22;1830;49.000;12.074;2023-03-01T09:11:17;1.20;99.90
3628;DHT22;1830;49.000;12.074;2023-03-01T09:13:45;1.20;99.90
3628;DHT22;1830;49.000;12.074;2023-03-01T09:16:18;1.30;99.90
3628;DHT22;1830;49.000;12.074;2023-03-01T09:18:48;1.40;99.90
3628;DHT22;1830;49.000;12.074;2023-03-01T09:21:16;1.50;99.90
3628;DHT22;1830;49.000;12.074;2023-03-01T09:23:45;1.50;99.90
3628;DHT22;1830;49.000;12.074;2023-03-01T09:26:14;1.60;99.90
3628;DHT22;1830;49.000;12.074;2023-03-01T09:28:42;1.60;99.90
3628;DHT22;1830;49.000;12.074;2023-03-01T09:31:10;1.70;99.90
3628;DHT22;1830;49.000;12.074;2023-03-01T09:33:39;1.70;99.90
3628;DHT22;1830;49.000;12.074;2023-03-01T09:36:11;1.80;99.90
3628;DHT22;1830;49.000;12.074;2023-03-01T09:38:38;1.80;99.90
3628;DHT22;1830;49.000;12.074;2023-03-01T09:41:11;1.90;99.90
3628;DHT22;1830;49.000;12.074;2023-03-01T09:43:49;2.00;99.90
3628;DHT22;1830;49.000;12.074;2023-03-01T09:46:21;2.00;99.90
3628;DHT22;1830;49.000;12.074;2023-03-01T09:48:51;2.00;99.90
3628;DHT22;1830;49.000;12.074;2023-03-01T09:51:27;2.10;99.90
3628;DHT22;1830;49.000;12.074;2023-03-01T09:53:56;2.10;99.90
3628;DHT22;1830;49.000;12.074;2023-03-01T09:56:32;2.20;99.90
3628;DHT22;1830;49.000;12.074;2023-03-01T09:59:09;2.20;99.90
3628;DHT22;1830;49.000;12.074;2023-03-01T10:01:45;2.30;99.90
3628;DHT22;1830;49.000;12.074;2023-03-01T10:04:32;2.30;99.90
3628;DHT22;1830;49.000;12.074;2023-03-01T10:07:13;2.40;99.90
3628;DHT22;1830;49.000;12.074;2023-03-01T10:09:45;2.50;99.90
3628;DHT22;1830;49.000;12.074;2023-03-01T10:12:15;2.50;99.90
3628;DHT22;1830;49.000;12.074;2023-03-01T10:14:50;2.60;99.90
3628;DHT22;1830;49.000;12.074;2023-03-01T10:17:26;2.60;99.90
3628;DHT22;1830;49.000;12.074;2023-03-01T10:19:55;2.70;99.90
3628;DHT22;1830;49.000;12.074;2023-03-01T10:22:27;2.70;99.90
3628;DHT22;1830;49.000;12.074;2023-03-01T10:24:56;2.70;99.90
3628;DHT22;1830;49.000;12.074;2023-03-01T10:27:25;2.70;99.90
3628;DHT22;1830;49.000;12.074;2023-03-01T10:29:59;2.70;99.90
3628;DHT22;1830;49.000;12.074;2023-03-01T10:32:28;2.80;99.90
3628;DHT22;1830;49.000;12.074;2023-03-01T10:34:55;2.90;99.90
3628;DHT22;1830;49.000;12.074;2023-03-01T10:37:24;2.90;99.90
3628;DHT22;1830;49.000;12.074;2023-03-01T10:39:57;3.00;99.90
3628;DHT22;1830;49.000;12.074;2023-03-01T10:42:27;3.00;99.90
3628;DHT22;1830;49.000;12.074;2023-03-01T10:44:55;3.10;99.90
3628;DHT22;1830;49.000;12.074;2023-03-01T10:47:23;3.20;99.90
3628;DHT22;1830;49.000;12.074;2023-03-01T10:49:59;3.20;99.90
3628;DHT22;1830;49.000;12.074;2023-03-01T10:52:33;3.30;99.30
3628;DHT22;1830;49.000;12.074;2023-03-01T10:55:04;3.30;99.00
3628;DHT22;1830;49.000;12.074;2023-03-01T10:57:34;3.40;99.10
3628;DHT22;1830;49.000;12.074;2023-03-01T11:03:10;3.50;99.20
3628;DHT22;1830;49.000;12.074;2023-03-01T11:08:43;3.70;99.30
3628;DHT22;1830;49.000;12.074;2023-03-01T11:11:21;3.70;98.90
3628;DHT22;1830;49.000;12.074;2023-03-01T11:13:58;3.80;99.20
3628;DHT22;1830;49.000;12.074;2023-03-01T11:16:30;3.80;98.70
3628;DHT22;1830;49.000;12.074;2023-03-01T11:19:01;3.90;98.40
3628;DHT22;1830;49.000;12.074;2023-03-01T11:21:32;3.90;98.00
3628;DHT22;1830;49.000;12.074;2023-03-01T11:24:02;4.00;98.10
3628;DHT22;1830;49.000;12.074;2023-03-01T11:26:31;4.10;98.00
3628;DHT22;1830;49.000;12.074;2023-03-01T11:29:06;4.10;97.80
3628;DHT22;1830;49.000;12.074;2023-03-01T11:31:39;4.20;97.70
3628;DHT22;1830;49.000;12.074;2023-03-01T11:34:13;4.30;97.80
3628;DHT22;1830;49.000;12.074;2023-03-01T11:36:44;4.40;97.70
3628;DHT22;1830;49.000;12.074;2023-03-01T11:39:22;4.40;97.70
3628;DHT22;1830;49.000;12.074;2023-03-01T11:42:00;4.50;97.50
3628;DHT22;1830;49.000;12.074;2023-03-01T11:44:30;4.50;97.20
3628;DHT22;1830;49.000;12.074;2023-03-01T11:47:24;4.60;97.20
3628;DHT22;1830;49.000;12.074;2023-03-01T11:50:13;4.60;97.20
3628;DHT22;1830;49.000;12.074;2023-03-01T11:52:48;4.60;97.20
3628;DHT22;1830;49.000;12.074;2023-03-01T11:55:36;4.70;97.30
3628;DHT22;1830;49.000;12.074;2023-03-01T11:58:29;4.80;97.60
3628;DHT22;1830;49.000;12.074;2023-03-01T12:01:15;4.80;97.40
3628;DHT22;1830;49.000;12.074;2023-03-01T12:03:58;4.90;97.70
3628;DHT22;1830;49.000;12.074;2023-03-01T12:06:47;5.10;97.90
3628;DHT22;1830;49.000;12.074;2023-03-01T12:09:38;5.10;97.70
3628;DHT22;1830;49.000;12.074;2023-03-01T12:12:28;5.10;97.60
3628;DHT22;1830;49.000;12.074;2023-03-01T12:18:08;5.40;96.80
3628;DHT22;1830;49.000;12.074;2023-03-01T12:20:45;5.50;97.20
3628;DHT22;1830;49.000;12.074;2023-03-01T12:23:30;5.60;96.90
3628;DHT22;1830;49.000;12.074;2023-03-01T12:26:02;5.70;97.00
3628;DHT22;1830;49.000;12.074;2023-03-01T12:28:49;5.80;96.70
3628;DHT22;1830;49.000;12.074;2023-03-01T12:31:44;5.80;96.50
3628;DHT22;1830;49.000;12.074;2023-03-01T12:34:29;5.90;96.90
3628;DHT22;1830;49.000;12.074;2023-03-01T12:37:15;6.00;97.10
3628;DHT22;1830;49.000;12.074;2023-03-01T12:39:53;6.00;97.10
3628;DHT22;1830;49.000;12.074;2023-03-01T12:42:27;6.00;97.10
3628;DHT22;1830;49.000;12.074;2023-03-01T12:45:24;6.20;97.60
3628;DHT22;1830;49.000;12.074;2023-03-01T12:48:03;6.30;97.50
3628;DHT22;1830;49.000;12.074;2023-03-01T12:50:39;6.40;97.10
3628;DHT22;1830;49.000;12.074;2023-03-01T12:53:17;6.50;96.90
3628;DHT22;1830;49.000;12.074;2023-03-01T12:55:47;6.50;96.50
3628;DHT22;1830;49.000;12.074;2023-03-01T12:58:23;6.60;96.80
3628;DHT22;1830;49.000;12.074;2023-03-01T13:01:03;6.60;96.50
3628;DHT22;1830;49.000;12.074;2023-03-01T13:03:42;6.60;96.40
3628;DHT22;1830;49.000;12.074;2023-03-01T13:06:17;6.70;96.40
3628;DHT22;1830;49.000;12.074;2023-03-01T13:08:52;6.70;96.60
3628;DHT22;1830;49.000;12.074;2023-03-01T13:11:22;6.80;96.60
3628;DHT22;1830;49.000;12.074;2023-03-01T13:13:50;6.90;96.40
3628;DHT22;1830;49.000;12.074;2023-03-01T13:19:14;7.00;96.10
3628;DHT22;1830;49.000;12.074;2023-03-01T13:21:42;7.10;96.30
3628;DHT22;1830;49.000;12.074;2023-03-01T13:24:25;7.20;96.30
3628;DHT22;1830;49.000;12.074;2023-03-01T13:27:23;7.20;96.10
3628;DHT22;1830;49.000;12.074;2023-03-01T13:29:55;7.20;96.20
3628;DHT22;1830;49.000;12.074;2023-03-01T13:32:27;7.30;96.30
3628;DHT22;1830;49.000;12.074;2023-03-01T13:34:59;7.30;95.80
3628;DHT22;1830;49.000;12.074;2023-03-01T13:37:32;7.30;95.80
3628;DHT22;1830;49.000;12.074;2023-03-01T13:40:02;7.40;96.10
3628;DHT22;1830;49.000;12.074;2023-03-01T13:42:42;7.40;95.90
3628;DHT22;1830;49.000;12.074;2023-03-01T13:45:20;7.50;95.90
3628;DHT22;1830;49.000;12.074;2023-03-01T13:47:53;7.60;96.00
3628;DHT22;1830;49.000;12.074;2023-03-01T13:50:25;7.60;95.90
3628;DHT22;1830;49.000;12.074;2023-03-01T13:52:55;7.70;95.90
3628;DHT22;1830;49.000;12.074;2023-03-01T13:55:28;7.70;95.70
3628;DHT22;1830;49.000;12.074;2023-03-01T13:57:58;7.70;95.70
3628;DHT22;1830;49.000;12.074;2023-03-01T14:00:32;7.90;95.90
3628;DHT22;1830;49.000;12.074;2023-03-01T14:03:10;7.80;95.30
3628;DHT22;1830;49.000;12.074;2023-03-01T14:05:38;7.80;95.50
3628;DHT22;1830;49.000;12.074;2023-03-01T14:08:17;7.90;95.50
3628;DHT22;1830;49.000;12.074;2023-03-01T14:10:53;7.90;95.50
3628;DHT22;1830;49.000;12.074;2023-03-01T14:13:31;7.90;95.70
3628;DHT22;1830;49.000;12.074;2023-03-01T14:16:12;7.80;95.30
3628;DHT22;1830;49.000;12.074;2023-03-01T14:18:46;7.70;95.60
3628;DHT22;1830;49.000;12.074;2023-03-01T14:21:16;7.70;95.60
3628;DHT22;1830;49.000;12.074;2023-03-01T14:23:43;7.70;95.70
3628;DHT22;1830;49.000;12.074;2023-03-01T14:26:12;7.60;95.90
3628;DHT22;1830;49.000;12.074;2023-03-01T14:28:39;7.60;96.20
3628;DHT22;1830;49.000;12.074;2023-03-01T14:34:19;7.40;96.20
3628;DHT22;1830;49.000;12.074;2023-03-01T14:36:46;7.30;96.30
3628;DHT22;1830;49.000;12.074;2023-03-01T14:39:17;7.30;96.30
3628;DHT22;1830;49.000;12.074;2023-03-01T14:41:45;7.20;96.70
3628;DHT22;1830;49.000;12.074;2023-03-01T14:44:16;7.30;96.70
3628;DHT22;1830;49.000;12.074;2023-03-01T14:46:45;7.10;96.70
3628;DHT22;1830;49.000;12.074;2023-03-01T14:49:16;7.00;97.00
3628;DHT22;1830;49.000;12.074;2023-03-01T14:51:50;7.10;97.20
3628;DHT22;1830;49.000;12.074;2023-03-01T14:54:21;7.00;97.20
3628;DHT22;1830;49.000;12.074;2023-03-01T14:56:48;7.00;97.50
3628;DHT22;1830;49.000;12.074;2023-03-01T14:59:19;7.00;97.70
3628;DHT22;1830;49.000;12.074;2023-03-01T15:01:48;7.00;97.50
3628;DHT22;1830;49.000;12.074;2023-03-01T15:04:16;7.00;97.50
3628;DHT22;1830;49.000;12.074;2023-03-01T15:06:45;6.90;97.60
3628;DHT22;1830;49.000;12.074;2023-03-01T15:09:14;7.00;98.00
3628;DHT22;1830;49.000;12.074;2023-03-01T15:11:42;7.00;97.70
3628;DHT22;1830;49.000;12.074;2023-03-01T15:14:27;6.90;97.90
3628;DHT22;1830;49.000;12.074;2023-03-01T15:16:54;6.80;98.10
3628;DHT22;1830;49.000;12.074;2023-03-01T15:19:24;6.80;98.10
3628;DHT22;1830;49.000;12.074;2023-03-01T15:22:01;6.80;98.10
3628;DHT22;1830;49.000;12.074;2023-03-01T15:24:49;6.80;98.00
3628;DHT22;1830;49.000;12.074;2023-03-01T15:27:18;6.80;98.00
3628;DHT22;1830;49.000;12.074;2023-03-01T15:29:49;6.70;98.10
3628;DHT22;1830;49.000;12.074;2023-03-01T15:32:29;6.60;98.20
3628;DHT22;1830;49.000;12.074;2023-03-01T15:34:58;6.50;98.40
3628;DHT22;1830;49.000;12.074;2023-03-01T15:37:43;6.50;98.70
3628;DHT22;1830;49.000;12.074;2023-03-01T15:40:19;6.50;98.70
3628;DHT22;1830;49.000;12.074;2023-03-01T15:42:49;6.40;98.50
3628;DHT22;1830;49.000;12.074;2023-03-01T15:45:23;6.40;98.70
3628;DHT22;1830;49.000;12.074;2023-03-01T15:47:54;6.40;98.60
3628;DHT22;1830;49.000;12.074;2023-03-01T15:50:26;6.30;99.00
3628;DHT22;1830;49.000;12.074;2023-03-01T15:52:55;6.20;99.00
3628;DHT22;1830;49.000;12.074;2023-03-01T15:55:26;6.10;99.10
3628;DHT22;1830;49.000;12.074;2023-03-01T15:57:59;6.10;99.10
3628;DHT22;1830;49.000;12.074;2023-03-01T16:00:28;6.00;99.30
3628;DHT22;1830;49.000;12.074;2023-03-01T16:02:55;5.90;99.40
3628;DHT22;1830;49.000;12.074;2023-03-01T16:05:25;6.00;99.50
3628;DHT22;1830;49.000;12.074;2023-03-01T16:07:53;5.80;99.70
3628;DHT22;1830;49.000;12.074;2023-03-01T16:10:22;5.80;99.80
3628;DHT22;1830;49.000;12.074;2023-03-01T16:12:49;5.90;99.60
3628;DHT22;1830;49.000;12.074;2023-03-01T16:15:44;5.80;99.80
3628;DHT22;1830;49.000;12.074;2023-03-01T16:18:11;5.70;99.90
3628;DHT22;1830;49.000;12.074;2023-03-01T16:20:39;5.70;99.90
3628;DHT22;1830;49.000;12.074;2023-03-01T16:23:07;5.60;99.90
3628;DHT22;1830;49.000;12.074;2023-03-01T16:25:35;5.50;99.90
3628;DHT22;1830;49.000;12.074;2023-03-01T16:28:03;5.50;99.90
3628;DHT22;1830;49.000;12.074;2023-03-01T16:30:34;5.50;99.90
3628;DHT22;1830;49.000;12.074;2023-03-01T16:33:01;5.50;99.90